Time;durP1;ratioP1;P1;durP2;ratioP2;P2;SDS_P1;SDS_P2;PMS_P1;PMS_P2;Temp;Humidity;BMP_temperature;BMP_pressure;BME280_temperature;BME280_humidity;BME280_pressure;Samples;Min_cycle;Max_cycle;Signal;HPM_P1;HPM_P2
2024/03/06 00:01:10;;;;;;;55.63;30.73;;;;;;;3.99;100.00;101883.91;5071769;28;20028;-82
2024/03/06 00:03:36;;;;;;;61.83;33.15;;;;;;;4.00;100.00;101888.22;5072113;28;20036;-82
2024/03/06 00:06:01;;;;;;;61.65;33.28;;;;;;;4.00;100.00;101890.84;5074578;28;20349;-83
2024/03/06 00:08:28;;;;;;;63.83;32.35;;;;;;;4.03;100.00;101894.22;5059248;28;20071;-83
2024/03/06 00:10:53;;;;;;;60.53;32.97;;;;;;;4.05;100.00;101892.34;5076255;28;20035;-83
2024/03/06 00:13:18;;;;;;;59.35;31.77;;;;;;;4.08;100.00;101901.91;5075800;28;20024;-82
2024/03/06 00:15:44;;;;;;;68.35;32.05;;;;;;;4.09;100.00;101906.25;5059451;28;20070;-82
2024/03/06 00:18:10;;;;;;;70.78;33.50;;;;;;;4.13;100.00;101912.22;5075714;28;20513;-82
2024/03/06 00:20:35;;;;;;;58.20;31.20;;;;;;;4.15;100.00;101919.16;5059623;28;20031;-83
2024/03/06 00:23:01;;;;;;;60.25;29.92;;;;;;;4.18;100.00;101924.28;5075741;28;20466;-82
2024/03/06 00:25:26;;;;;;;60.42;32.08;;;;;;;4.21;100.00;101932.03;5059255;28;20024;-82
2024/03/06 00:27:51;;;;;;;64.88;31.55;;;;;;;4.21;100.00;101929.41;5076409;28;20391;-83
2024/03/06 00:30:17;;;;;;;58.38;30.60;;;;;;;4.24;100.00;101933.69;5075508;28;20040;-83
2024/03/06 00:32:42;;;;;;;55.70;30.08;;;;;;;4.26;100.00;101939.72;5075758;28;20063;-83
2024/03/06 00:35:08;;;;;;;58.67;30.85;;;;;;;4.29;100.00;101936.94;5058536;28;20260;-83
2024/03/06 00:37:33;;;;;;;57.50;29.73;;;;;;;4.32;100.00;101935.94;5058686;28;20035;-83
2024/03/06 00:39:59;;;;;;;72.72;39.17;;;;;;;4.31;100.00;101924.53;5075686;28;20024;-83
2024/03/06 00:42:24;;;;;;;64.70;33.45;;;;;;;4.30;100.00;101930.75;5075004;28;20547;-83
2024/03/06 00:44:50;;;;;;;57.72;31.65;;;;;;;4.30;100.00;101930.75;5075209;28;20120;-83
2024/03/06 00:47:16;;;;;;;59.42;30.75;;;;;;;4.28;100.00;101932.59;5074984;28;20024;-83
2024/03/06 00:49:42;;;;;;;60.70;32.08;;;;;;;4.28;100.00;101934.38;5093492;28;20028;-83
2024/03/06 00:52:07;;;;;;;58.50;31.38;;;;;;;4.29;100.00;101928.19;5093168;28;20472;-82
2024/03/06 00:54:32;;;;;;;58.80;32.67;;;;;;;4.27;100.00;101935.28;5058959;28;20041;-83
2024/03/06 00:56:59;;;;;;;70.45;35.67;;;;;;;4.27;100.00;101941.44;5093397;28;20093;-83
2024/03/06 00:59:24;;;;;;;69.57;38.15;;;;;;;4.28;100.00;101944.91;5074655;28;20345;-83
2024/03/06 01:01:50;;;;;;;73.53;40.72;;;;;;;4.28;100.00;101940.47;5075195;28;20088;-82
2024/03/06 01:04:16;;;;;;;93.97;52.38;;;;;;;4.29;100.00;101941.38;5092836;28;20439;-83
2024/03/06 01:06:41;;;;;;;84.97;48.85;;;;;;;4.28;100.00;101942.28;5093319;28;20036;-83
2024/03/06 01:09:07;;;;;;;102.20;58.30;;;;;;;4.30;100.00;101946.56;5091917;28;20071;-82
2024/03/06 01:11:32;;;;;;;103.35;55.80;;;;;;;4.31;100.00;101937.72;5092412;28;20056;-83
2024/03/06 01:13:57;;;;;;;82.68;45.33;;;;;;;4.33;100.00;101942.91;5093449;28;20103;-82
2024/03/06 01:16:23;;;;;;;66.25;38.47;;;;;;;4.34;100.00;101947.25;5092625;28;20035;-82
2024/03/06 01:18:48;;;;;;;70.07;37.00;;;;;;;4.34;100.00;101955.16;5074851;28;20040;-82
2024/03/06 01:21:14;;;;;;;60.80;33.58;;;;;;;4.34;100.00;101950.72;5092639;28;20051;-82
2024/03/06 01:23:40;;;;;;;67.25;32.60;;;;;;;4.35;100.00;101949.81;5057974;28;20036;-82
2024/03/06 01:26:06;;;;;;;57.22;31.77;;;;;;;4.37;100.00;101952.38;5074731;28;20503;-82
2024/03/06 01:28:31;;;;;;;60.67;32.75;;;;;;;4.38;100.00;101948.81;5093066;28;20035;-82
2024/03/06 01:30:58;;;;;;;62.28;31.90;;;;;;;4.39;100.00;101950.56;5092798;28;20055;-82
2024/03/06 01:33:24;;;;;;;59.67;32.65;;;;;;;4.39;100.00;101955.81;5074343;28;20056;-82
2024/03/06 01:35:49;;;;;;;57.53;32.47;;;;;;;4.40;100.00;101954.88;5093122;28;20036;-83
2024/03/06 01:38:15;;;;;;;58.08;33.33;;;;;;;4.38;100.00;101957.56;5092326;28;20028;-82
2024/03/06 01:40:44;;;;;;;61.00;33.15;;;;;;;4.38;100.00;101962.84;5092880;28;20097;-82
2024/03/06 01:43:21;;;;;;;64.78;32.38;;;;;;;4.39;100.00;101956.66;5092392;28;20023;-82
2024/03/06 01:45:47;;;;;;;55.63;33.08;;;;;;;4.40;100.00;101957.50;5092911;28;20080;-82
2024/03/06 01:48:14;;;;;;;55.28;32.13;;;;;;;4.41;100.00;101956.59;5074122;28;20118;-82
2024/03/06 01:50:41;;;;;;;57.50;31.88;;;;;;;4.41;100.00;101957.44;5074272;28;20032;-82
2024/03/06 01:53:06;;;;;;;62.13;32.13;;;;;;;4.41;100.00;101960.06;5074711;28;20032;-82
2024/03/06 01:55:32;;;;;;;57.28;31.92;;;;;;;4.43;100.00;101957.34;5092100;28;20395;-82
2024/03/06 01:57:57;;;;;;;61.08;34.67;;;;;;;4.46;100.00;101969.56;5057638;28;20433;-81
2024/03/06 02:00:23;;;;;;;58.92;33.28;;;;;;;4.46;100.00;101965.13;5073819;28;20098;-81
2024/03/06 02:02:48;;;;;;;62.22;33.65;;;;;;;4.46;100.00;101970.41;5074137;28;20035;-82
2024/03/06 02:05:14;;;;;;;60.67;34.03;;;;;;;4.48;100.00;101967.69;5073761;28;20024;-82
2024/03/06 02:07:42;;;;;;;64.72;33.70;;;;;;;4.48;100.00;101971.19;5073907;28;20074;-82
2024/03/06 02:10:09;;;;;;;53.20;33.25;;;;;;;4.49;100.00;101975.53;5074404;28;20032;-82
2024/03/06 02:12:36;;;;;;;60.15;33.97;;;;;;;4.50;100.00;101977.25;5091994;28;20016;-83
2024/03/06 02:15:03;;;;;;;61.28;34.55;;;;;;;4.51;100.00;101981.59;5074338;28;20080;-83
2024/03/06 02:17:29;;;;;;;61.88;34.22;;;;;;;4.54;100.00;101988.50;5091775;28;20050;-83
2024/03/06 02:19:55;;;;;;;62.83;34.10;;;;;;;4.54;100.00;101981.44;5092264;28;20024;-83
2024/03/06 02:22:21;;;;;;;59.80;34.55;;;;;;;4.55;100.00;101979.66;5091595;28;20095;-82
2024/03/06 02:24:48;;;;;;;60.88;35.40;;;;;;;4.54;100.00;101978.81;5073826;28;20172;-83
2024/03/06 02:27:13;;;;;;;56.53;33.97;;;;;;;4.53;100.00;101987.63;5091746;28;20024;-83
2024/03/06 02:29:39;;;;;;;58.22;34.75;;;;;;;4.53;100.00;101985.00;5057397;28;20043;-83
2024/03/06 02:32:04;;;;;;;60.53;35.85;;;;;;;4.53;100.00;101985.00;5092199;28;20447;-83
2024/03/06 02:34:30;;;;;;;65.22;34.58;;;;;;;4.52;100.00;101977.16;5091662;28;20028;-82
2024/03/06 02:36:56;;;;;;;59.83;34.95;;;;;;;4.51;100.00;101984.22;5092052;28;20498;-83
2024/03/06 02:39:21;;;;;;;64.22;35.25;;;;;;;4.50;100.00;101984.31;5073309;28;20020;-83
2024/03/06 02:41:47;;;;;;;60.53;34.92;;;;;;;4.48;100.00;101987.00;5073750;28;20035;-83
2024/03/06 02:44:13;;;;;;;61.10;35.47;;;;;;;4.45;100.00;101986.28;5091691;28;20066;-83
2024/03/06 02:46:39;;;;;;;62.35;35.55;;;;;;;4.40;100.00;101978.59;5091677;28;20104;-83
2024/03/06 02:49:05;;;;;;;59.28;34.83;;;;;;;4.37;100.00;101978.72;5073475;28;20055;-83
2024/03/06 02:51:31;;;;;;;55.88;33.45;;;;;;;4.34;100.00;101979.72;5091264;28;20039;-83
2024/03/06 02:53:56;;;;;;;56.60;34.85;;;;;;;4.31;100.00;101985.13;5091983;28;20039;-83
2024/03/06 02:56:22;;;;;;;48.85;33.03;;;;;;;4.27;100.00;101978.31;5091090;28;20027;-82
2024/03/06 02:58:47;;;;;;;56.22;34.97;;;;;;;4.27;100.00;101986.22;5073486;28;20036;-82
2024/03/06 03:01:16;;;;;;;52.65;34.75;;;;;;;4.24;100.00;101981.09;5091863;28;20047;-82
2024/03/06 03:03:42;;;;;;;59.08;34.55;;;;;;;4.18;100.00;101981.34;5091025;28;20032;-83
2024/03/06 03:06:08;;;;;;;59.97;34.80;;;;;;;4.14;100.00;101979.81;5072561;28;20028;-83
2024/03/06 03:08:33;;;;;;;55.50;33.95;;;;;;;4.10;100.00;101986.97;5072453;28;20116;-83
2024/03/06 03:10:59;;;;;;;60.00;35.08;;;;;;;4.10;100.00;101986.97;5090916;28;20043;-83
2024/03/06 03:13:24;;;;;;;61.42;36.22;;;;;;;4.12;100.00;101993.03;5090422;28;20077;-82
2024/03/06 03:15:51;;;;;;;59.35;35.47;;;;;;;4.14;100.00;101985.91;5072892;28;20042;-82
2024/03/06 03:18:16;;;;;;;61.45;36.15;;;;;;;4.18;100.00;101995.41;5072903;28;20391;-82
2024/03/06 03:20:41;;;;;;;61.08;35.33;;;;;;;4.22;100.00;101985.56;5055732;28;20076;-82
2024/03/06 03:23:11;;;;;;;59.28;36.40;;;;;;;4.24;100.00;101989.84;5090807;28;20399;-83
2024/03/06 03:25:37;;;;;;;59.50;35.58;;;;;;;4.26;100.00;101994.19;5090797;28;20043;-83
2024/03/06 03:28:03;;;;;;;60.70;36.17;;;;;;;4.27;100.00;101991.50;5056074;28;20032;-83
2024/03/06 03:30:28;;;;;;;62.35;35.95;;;;;;;4.29;100.00;102000.16;5055375;28;20112;-83
2024/03/06 03:32:54;;;;;;;61.25;35.55;;;;;;;4.30;100.00;101996.63;5090839;28;20127;-83
2024/03/06 03:35:24;;;;;;;57.30;35.15;;;;;;;4.31;100.00;101997.47;5090670;28;20028;-81
2024/03/06 03:37:51;;;;;;;55.42;34.15;;;;;;;4.30;100.00;101993.97;5090984;28;20047;-82
2024/03/06 03:40:17;;;;;;;56.22;34.88;;;;;;;4.30;100.00;102001.88;5089831;28;20020;-83
2024/03/06 03:42:43;;;;;;;57.33;34.67;;;;;;;4.29;100.00;102000.16;5072059;28;20108;-82
2024/03/06 03:45:09;;;;;;;60.15;36.05;;;;;;;4.28;100.00;101998.44;5072384;28;20028;-82
2024/03/06 03:47:34;;;;;;;57.20;35.63;;;;;;;4.27;100.00;102002.03;5090206;28;20386;-82
2024/03/06 03:50:01;;;;;;;61.17;35.25;;;;;;;4.25;100.00;102003.88;5090542;28;20229;-82
2024/03/06 03:52:26;;;;;;;60.75;36.75;;;;;;;4.23;100.00;102006.56;5090151;28;20024;-82
2024/03/06 03:54:52;;;;;;;62.60;36.38;;;;;;;4.21;100.00;102010.19;5072639;28;20070;-82
2024/03/06 03:57:17;;;;;;;58.70;37.00;;;;;;;4.20;100.00;102006.72;5072483;28;20093;-83
2024/03/06 03:59:43;;;;;;;56.45;35.72;;;;;;;4.19;100.00;102006.78;5090242;28;20465;-83
2024/03/06 04:02:08;;;;;;;60.40;36.25;;;;;;;4.18;100.00;102005.06;5090778;28;20043;-82
2024/03/06 04:04:34;;;;;;;65.82;35.00;;;;;;;4.18;100.00;102002.41;5090327;28;20028;-82
2024/03/06 04:07:01;;;;;;;58.80;35.67;;;;;;;4.18;100.00;102003.31;5090359;28;20034;-82
2024/03/06 04:09:29;;;;;;;56.22;34.80;;;;;;;4.18;100.00;102000.66;5072438;28;20039;-82
2024/03/06 04:11:55;;;;;;;59.05;36.80;;;;;;;4.18;100.00;102007.69;5072796;28;20055;-82
2024/03/06 04:14:20;;;;;;;56.05;35.70;;;;;;;4.15;100.00;102011.34;5090435;28;20071;-82
2024/03/06 04:16:46;;;;;;;56.25;35.13;;;;;;;4.14;100.00;102017.53;5055391;28;20044;-82
2024/03/06 04:19:11;;;;;;;64.20;37.45;;;;;;;4.11;100.00;102017.66;5090424;28;20016;-81
2024/03/06 04:21:42;;;;;;;55.25;35.15;;;;;;;4.06;100.00;102014.34;5054969;28;20507;-81
2024/03/06 04:24:07;;;;;;;55.97;33.83;;;;;;;4.01;100.00;102021.63;5055706;28;20040;-82
2024/03/06 04:26:33;;;;;;;57.13;35.50;;;;;;;3.95;100.00;102020.09;5071817;28;20498;-82
2024/03/06 04:28:58;;;;;;;57.60;34.60;;;;;;;3.88;100.00;102024.81;5090359;28;20134;-82
2024/03/06 04:31:24;;;;;;;56.58;34.83;;;;;;;3.82;100.00;102027.72;5090465;28;20451;-82
2024/03/06 04:33:50;;;;;;;56.83;36.20;;;;;;;3.79;100.00;102029.59;5071457;28;20507;-82
2024/03/06 04:36:15;;;;;;;56.80;35.05;;;;;;;3.76;100.00;102032.38;5072139;28;20035;-82
2024/03/06 04:38:41;;;;;;;57.75;35.63;;;;;;;3.74;100.00;102028.94;5055054;28;20032;-82
2024/03/06 04:41:06;;;;;;;62.50;36.35;;;;;;;3.72;100.00;102036.91;5072420;28;20034;-82
2024/03/06 04:43:32;;;;;;;59.05;36.45;;;;;;;3.68;100.00;102035.31;5055153;28;20031;-82
2024/03/06 04:45:57;;;;;;;58.63;34.50;;;;;;;3.61;100.00;102025.97;5090417;28;20379;-82
2024/03/06 04:48:23;;;;;;;57.10;35.70;;;;;;;3.52;100.00;102027.22;5091246;28;20038;-82
2024/03/06 04:50:49;;;;;;;59.70;35.75;;;;;;;3.43;100.00;102033.72;5073009;28;20432;-82
2024/03/06 04:53:15;;;;;;;49.72;31.45;;;;;;;3.33;100.00;102041.16;5075847;28;20060;-82
2024/03/06 04:55:41;;;;;;;63.92;37.65;;;;;;;3.27;100.00;102046.66;5093435;28;20039;-82
2024/03/06 04:58:06;;;;;;;53.58;34.90;;;;;;;3.18;100.00;102040.00;5093808;28;20035;-82
2024/03/06 05:00:32;;;;;;;52.88;32.45;;;;;;;3.11;100.00;102042.94;5075314;28;20043;-83
2024/03/06 05:02:57;;;;;;;56.90;32.53;;;;;;;3.01;100.00;102050.31;5093191;28;20035;-83
2024/03/06 05:05:24;;;;;;;50.08;31.00;;;;;;;2.91;100.00;102054.22;5075029;28;20123;-83
2024/03/06 05:07:50;;;;;;;46.05;29.83;;;;;;;2.81;100.00;102059.84;5058386;28;20060;-83
2024/03/06 05:10:16;;;;;;;42.10;26.75;;;;;;;2.72;100.00;102059.34;5074812;28;20031;-83
2024/03/06 05:12:42;;;;;;;47.55;29.98;;;;;;;2.60;100.00;102058.91;5074689;28;20090;-83
2024/03/06 05:15:08;;;;;;;48.88;29.73;;;;;;;2.52;100.00;102065.34;5093625;28;20078;-83
2024/03/06 05:17:34;;;;;;;44.63;28.02;;;;;;;2.41;100.00;102068.38;5093176;28;20024;-83
2024/03/06 05:19:59;;;;;;;44.17;27.85;;;;;;;2.31;100.00;102070.47;5058044;28;20016;-83
2024/03/06 05:22:26;;;;;;;42.30;26.77;;;;;;;2.22;100.00;102070.81;5093302;28;20154;-83
2024/03/06 05:24:52;;;;;;;45.80;27.95;;;;;;;2.13;100.00;102071.97;5074519;28;20475;-83
2024/03/06 05:27:20;;;;;;;45.60;28.58;;;;;;;2.10;100.00;102077.34;5074844;28;20039;-83
2024/03/06 05:29:45;;;;;;;48.60;30.27;;;;;;;2.08;100.00;102080.03;5092608;28;20028;-83
2024/03/06 05:32:11;;;;;;;45.10;29.23;;;;;;;2.08;100.00;102079.19;5057976;28;20085;-83
2024/03/06 05:34:36;;;;;;;54.25;31.65;;;;;;;2.02;100.00;102079.41;5093434;28;20023;-82
2024/03/06 05:37:03;;;;;;;48.72;31.05;;;;;;;1.96;100.00;102080.47;5092625;28;20060;-82
2024/03/06 05:39:33;;;;;;;49.20;30.85;;;;;;;1.88;100.00;102078.09;5074918;28;20383;-82
2024/03/06 05:42:05;;;;;;;48.92;30.23;;;;;;;1.84;100.00;102079.09;5074248;28;20372;-83
2024/03/06 05:44:32;;;;;;;50.67;31.30;;;;;;;1.80;100.00;102088.00;5092861;28;20495;-83
2024/03/06 05:47:01;;;;;;;43.78;28.45;;;;;;;1.73;100.00;102082.09;5092350;28;20032;-83
2024/03/06 05:49:27;;;;;;;49.70;30.27;;;;;;;1.67;100.00;102084.06;5074448;28;20035;-83
2024/03/06 05:51:52;;;;;;;44.53;28.70;;;;;;;1.62;100.00;102088.63;5092146;28;20445;-83
2024/03/06 05:54:19;;;;;;;41.90;27.58;;;;;;;1.57;100.00;102091.41;5074384;28;20097;-83
2024/03/06 05:56:45;;;;;;;45.53;26.15;;;;;;;1.50;100.00;102095.97;5091867;28;20383;-83
2024/03/06 05:59:10;;;;;;;41.97;27.52;;;;;;;1.43;100.00;102094.44;5073921;28;20020;-83
2024/03/06 06:01:35;;;;;;;47.55;28.42;;;;;;;1.37;100.00;102100.78;5074185;28;20056;-83
2024/03/06 06:04:02;;;;;;;47.60;29.00;;;;;;;1.33;100.00;102095.63;5090841;28;20092;-83
2024/03/06 06:06:27;;;;;;;40.30;27.42;;;;;;;1.31;100.00;102103.56;5092263;28;20077;-83
2024/03/06 06:08:53;;;;;;;44.78;28.70;;;;;;;1.28;100.00;102101.03;5092300;28;20052;-83
2024/03/06 06:11:19;;;;;;;45.95;27.63;;;;;;;1.22;100.00;102107.34;5073865;28;20455;-82
2024/03/06 06:13:44;;;;;;;43.47;26.23;;;;;;;1.18;100.00;102102.22;5091426;28;20028;-82
2024/03/06 06:16:10;;;;;;;46.03;28.13;;;;;;;1.11;100.00;102106.81;5073503;28;20032;-83
2024/03/06 06:18:35;;;;;;;38.63;26.20;;;;;;;1.07;100.00;102107.81;5091508;28;20539;-84
2024/03/06 06:21:01;;;;;;;42.30;25.58;;;;;;;1.03;100.00;102124.53;5091476;28;20024;-82
2024/03/06 06:23:26;;;;;;;50.63;28.92;;;;;;;0.99;100.00;102120.28;5091695;28;20154;-83
2024/03/06 06:25:52;;;;;;;45.85;28.40;;;;;;;0.97;100.00;102127.31;5091325;28;20056;-83
2024/03/06 06:28:18;;;;;;;38.33;26.08;;;;;;;0.95;100.00;102131.78;5091755;28;20351;-84
2024/03/06 06:30:44;;;;;;;41.25;26.45;;;;;;;0.93;100.00;102134.44;5091573;28;20066;-83
2024/03/06 06:33:09;;;;;;;39.92;25.38;;;;;;;0.92;100.00;102140.56;5091244;28;20302;-84
2024/03/06 06:35:35;;;;;;;36.78;24.48;;;;;;;0.94;100.00;102149.28;5091509;28;20028;-82
2024/03/06 06:38:01;;;;;;;39.63;25.58;;;;;;;0.94;100.00;102159.75;5091107;28;20024;-84
2024/03/06 06:40:27;;;;;;;46.15;28.40;;;;;;;0.96;100.00;102157.09;5091333;28;20536;-84
2024/03/06 06:42:53;;;;;;;55.78;33.80;;;;;;;0.99;100.00;102157.84;5072862;28;20063;-84
2024/03/06 06:45:20;;;;;;;52.63;29.30;;;;;;;1.02;100.00;102163.00;5073017;28;20059;-84
2024/03/06 06:47:46;;;;;;;53.63;32.58;;;;;;;1.07;100.00;102169.88;5091289;28;20020;-82
2024/03/06 06:50:11;;;;;;;45.47;28.35;;;;;;;1.10;100.00;102173.25;5091055;28;20032;-84
2024/03/06 06:52:40;;;;;;;38.90;25.42;;;;;;;1.15;100.00;102180.97;5091647;28;20360;-83
2024/03/06 06:55:06;;;;;;;47.08;28.10;;;;;;;1.18;100.00;102180.88;5090869;28;20032;-82
2024/03/06 06:57:33;;;;;;;39.10;24.55;;;;;;;1.20;100.00;102179.94;5091219;28;20035;-81
2024/03/06 07:00:10;;;;;;;34.80;22.50;;;;;;;1.23;100.00;102186.88;5090633;28;20034;-81
2024/03/06 07:02:39;;;;;;;34.60;23.00;;;;;;;1.26;100.00;102191.16;5074746;28;20020;-80
2024/03/06 07:05:05;;;;;;;35.25;23.85;;;;;;;1.28;100.00;102198.06;5090913;28;20032;-82
2024/03/06 07:07:31;;;;;;;33.95;22.70;;;;;;;1.29;100.00;102199.78;5090882;28;20140;-82
2024/03/06 07:09:56;;;;;;;39.72;24.80;;;;;;;1.31;100.00;102202.38;5072109;28;20119;-82
2024/03/06 07:12:22;;;;;;;42.85;26.80;;;;;;;1.33;100.00;102209.28;5072809;28;20042;-80
2024/03/06 07:14:47;;;;;;;37.78;24.48;;;;;;;1.35;100.00;102202.22;5072312;28;20044;-80
2024/03/06 07:17:13;;;;;;;45.38;29.08;;;;;;;1.37;100.00;102207.41;5072290;28;20549;-79
2024/03/06 07:19:39;;;;;;;43.88;27.80;;;;;;;1.40;100.00;102210.84;5090975;28;20520;-82
2024/03/06 07:22:05;;;;;;;46.58;30.75;;;;;;;1.44;100.00;102215.97;5090577;28;20027;-82
2024/03/06 07:24:30;;;;;;;49.40;31.50;;;;;;;1.52;100.00;102219.22;5090909;28;20537;-81
2024/03/06 07:26:55;;;;;;;48.28;30.00;;;;;;;1.61;100.00;102224.16;5091022;28;20030;-81
2024/03/06 07:29:21;;;;;;;51.30;31.67;;;;;;;1.68;100.00;102225.72;5055905;28;20071;-79
2024/03/06 07:31:47;;;;;;;43.30;30.60;;;;;;;1.77;100.00;102229.81;5055723;28;20039;-80
2024/03/06 07:34:14;;;;;;;53.92;31.85;;;;;;;1.83;100.00;102234.88;5090648;28;20131;-81
2024/03/06 07:36:39;;;;;;;57.40;33.50;;;;;;;1.88;100.00;102232.97;5090750;28;20058;-83
2024/03/06 07:39:05;;;;;;;60.22;33.13;;;;;;;1.93;100.00;102240.69;5072048;28;20460;-84
2024/03/06 07:41:32;;;;;;;66.18;33.97;;;;;;;1.96;100.00;102245.84;5090515;28;20455;-81
2024/03/06 07:43:58;;;;;;;102.45;33.88;;;;;;;1.97;100.00;102249.31;5090157;28;20094;-79
2024/03/06 07:46:24;;;;;;;82.55;36.08;;;;;;;2.02;100.00;102257.94;5056270;28;20028;-81
2024/03/06 07:48:51;;;;;;;82.25;34.80;;;;;;;2.05;100.00;102263.94;5038892;28;20028;-79
2024/03/06 07:51:16;;;;;;;76.38;33.17;;;;;;;2.06;100.00;102267.41;5067526;28;20032;-79
2024/03/06 07:53:42;;;;;;;56.63;33.65;;;;;;;2.08;100.00;102266.44;5052969;28;20565;-79
2024/03/06 07:56:11;;;;;;;92.30;34.20;;;;;;;2.11;100.00;102268.97;5052299;28;20097;-79
2024/03/06 07:58:37;;;;;;;105.10;34.72;;;;;;;2.20;100.00;102272.22;5087707;28;20020;-81
2024/03/06 08:01:03;;;;;;;55.80;35.08;;;;;;;2.29;100.00;102277.19;5068786;28;20030;-79
2024/03/06 08:03:28;;;;;;;231.90;41.65;;;;;;;2.38;100.00;102276.03;5087158;28;20119;-78
2024/03/06 08:05:54;;;;;;;174.10;37.85;;;;;;;2.46;100.00;102282.75;5069413;28;20497;-81
2024/03/06 08:08:20;;;;;;;68.32;37.92;;;;;;;2.56;100.00;102282.41;5071313;28;20063;-84
2024/03/06 08:10:46;;;;;;;92.53;38.72;;;;;;;2.68;100.00;102286.41;5071457;28;20478;-84
2024/03/06 08:13:11;;;;;;;148.88;44.70;;;;;;;2.81;100.00;102291.19;5069186;28;20036;-79
2024/03/06 08:15:36;;;;;;;218.05;43.17;;;;;;;2.98;100.00;102300.25;5069262;28;20036;-80
2024/03/06 08:18:03;;;;;;;121.60;42.70;;;;;;;3.12;100.00;102303.25;5051307;28;20386;-81
2024/03/06 08:20:29;;;;;;;168.35;42.10;;;;;;;3.20;100.00;102308.22;5068445;28;20024;-83
2024/03/06 08:22:56;;;;;;;138.18;45.72;;;;;;;3.29;100.00;102304.41;5087440;28;20055;-83
2024/03/06 08:25:21;;;;;;;112.97;41.47;;;;;;;3.43;100.00;102311.78;5067976;28;20416;-81
2024/03/06 08:27:47;;;;;;;135.75;43.05;;;;;;;3.55;100.00;102299.94;5091121;28;20043;-80
2024/03/06 08:30:12;;;;;;;87.65;42.47;;;;;;;3.70;100.00;102309.88;5090529;28;20558;-80
2024/03/06 08:32:38;;;;;;;102.57;46.13;;;;;;;3.84;100.00;102319.91;5073237;28;20054;-77
2024/03/06 08:35:09;;;;;;;85.65;43.13;;;;;;;3.96;100.00;102318.59;5090605;28;20054;-80
2024/03/06 08:37:37;;;;;;;79.32;43.40;;;;;;;4.12;100.00;102316.19;5072381;28;20024;-81
2024/03/06 08:40:03;;;;;;;82.05;45.17;;;;;;;4.30;100.00;102323.38;5090994;28;20125;-80
2024/03/06 08:42:29;;;;;;;95.25;44.75;;;;;;;4.46;100.00;102325.38;5072434;28;20045;-80
2024/03/06 08:44:56;;;;;;;70.40;43.05;;;;;;;4.62;100.00;102329.09;5055977;28;20020;-80
2024/03/06 08:47:22;;;;;;;65.93;41.70;;;;;;;4.84;100.00;102326.41;5090257;28;20039;-77
2024/03/06 08:49:47;;;;;;;70.55;42.33;;;;;;;5.17;100.00;102333.78;5090271;28;20032;-78
2024/03/06 08:52:13;;;;;;;60.95;39.58;;;;;;;5.46;100.00;102331.63;5071913;28;20535;-77
2024/03/06 08:54:41;;;;;;;62.13;40.13;;;;;;;5.78;100.00;102332.78;5090684;28;20038;-78
2024/03/06 08:57:08;;;;;;;58.40;39.30;;;;;;;6.10;100.00;102334.88;5052418;28;20062;-80
2024/03/06 08:59:34;;;;;;;52.45;36.53;;;;;;;6.87;100.00;102326.66;5070432;28;20059;-81
2024/03/06 09:02:13;;;;;;;45.22;31.75;;;;;;;8.09;100.00;102322.78;5085585;28;20408;-78
2024/03/06 09:04:38;;;;;;;44.72;31.00;;;;;;;9.33;100.00;102313.75;5072930;28;20029;-78
2024/03/06 09:07:04;;;;;;;37.55;27.40;;;;;;;9.97;100.00;102300.00;5072810;28;20032;-80
2024/03/06 09:09:29;;;;;;;33.17;23.98;;;;;;;10.91;100.00;102299.09;5054612;28;20035;-77
2024/03/06 09:11:54;;;;;;;34.65;23.73;;;;;;;11.89;100.00;102301.06;5058625;28;20499;-77
2024/03/06 09:14:20;;;;;;;28.08;21.42;;;;;;;12.45;100.00;102303.22;5058812;28;20041;-78
2024/03/06 09:16:51;;;;;;;29.30;20.63;;;;;;;13.40;100.00;102310.19;5053966;28;20036;-76
2024/03/06 09:19:17;;;;;;;25.83;19.25;;;;;;;13.89;100.00;102306.25;5071657;28;20383;-79
2024/03/06 09:21:42;;;;;;;24.65;18.83;;;;;;;14.44;100.00;102306.19;5072002;28;20021;-76
2024/03/06 09:24:07;;;;;;;25.95;19.40;;;;;;;14.88;100.00;102327.53;5053354;28;20396;-77
2024/03/06 09:26:33;;;;;;;22.30;17.17;;;;;;;14.74;100.00;102318.00;5071830;28;20031;-79
2024/03/06 09:28:58;;;;;;;23.13;18.08;;;;;;;15.05;100.00;102318.06;5071959;28;20541;-77
2024/03/06 09:31:25;;;;;;;26.80;18.23;;;;;;;15.71;100.00;102322.16;5071332;28;20033;-79
2024/03/06 09:33:50;;;;;;;20.45;17.35;;;;;;;15.68;100.00;102320.56;5053324;28;20036;-77
2024/03/06 09:36:16;;;;;;;22.45;18.13;;;;;;;16.06;100.00;102326.19;5071066;28;20311;-77
2024/03/06 09:38:42;;;;;;;25.50;18.13;;;;;;;15.95;100.00;102335.22;5071525;28;20060;-79
2024/03/06 09:41:08;;;;;;;23.70;18.75;;;;;;;16.46;100.00;102319.88;5071566;28;20016;-81
2024/03/06 09:43:34;;;;;;;22.15;18.20;;;;;;;16.82;100.00;102325.47;5071314;28;20096;-81
2024/03/06 09:46:02;;;;;;;23.08;17.40;;;;;;;16.28;100.00;102335.00;5053455;28;20047;-78
2024/03/06 09:48:29;;;;;;;24.50;17.70;;;;;;;16.19;100.00;102326.78;5071023;28;20502;-81
2024/03/06 09:51:00;;;;;;;22.90;17.63;;;;;;;16.35;100.00;102336.97;5071178;28;20036;-76
2024/03/06 09:53:25;;;;;;;;;;;;;;;16.57;100.00;102335.00;5071520;28;20024;-78
2024/03/06 09:55:51;;;;;;;21.40;16.60;;;;;;;17.36;100.00;102330.31;5071145;28;19912;-77
2024/03/06 09:58:17;;;;;;;22.17;16.80;;;;;;;17.38;100.00;102342.63;5070683;28;20050;-76
2024/03/06 10:00:44;;;;;;;21.77;16.40;;;;;;;17.43;100.00;102334.13;5071250;28;20052;-79
2024/03/06 10:03:11;;;;;;;21.13;15.43;;;;;;;17.34;100.00;102343.91;5053483;28;20051;-76
2024/03/06 10:05:37;;;;;;;21.98;15.02;;;;;;;17.55;100.00;102343.69;5071402;28;20042;-76
2024/03/06 10:08:04;;;;;;;20.08;15.43;;;;;;;17.51;100.00;102347.69;5052753;28;20491;-77
2024/03/06 10:10:30;;;;;;;22.08;15.48;;;;;;;17.45;100.00;102353.63;5071065;28;20029;-76
2024/03/06 10:12:57;;;;;;;21.17;15.40;;;;;;;17.40;100.00;102353.25;5071255;28;20032;-77
2024/03/06 10:15:23;;;;;;;19.20;15.13;;;;;;;17.98;100.00;102355.69;5053065;28;20036;-79
2024/03/06 10:17:49;;;;;;;19.90;15.85;;;;;;;18.18;100.00;102352.00;5052924;28;20141;-77
2024/03/06 10:20:22;;;;;;;20.50;15.07;;;;;;;18.59;100.00;102347.84;5070413;28;20024;-76
2024/03/06 10:22:50;;;;;;;23.33;15.63;;;;;;;18.58;100.00;102353.41;5070968;28;20021;-75
2024/03/06 10:25:18;;;;;;;18.15;15.32;;;;;;;18.94;100.00;102353.38;5052502;28;20108;-76
2024/03/06 10:27:44;;;;;;;20.40;15.13;;;;;;;19.18;100.00;102356.25;5070611;28;20162;-78
2024/03/06 10:30:15;;;;;;;17.00;13.63;;;;;;;19.06;100.00;102351.28;5071121;28;20111;-77
2024/03/06 10:32:43;;;;;;;;;;;;;;;19.61;100.00;102361.69;5071617;28;20078;-75
2024/03/06 10:35:18;;;;;;;17.75;13.60;;;;;;;19.12;100.00;102359.59;5070803;28;19967;-75
2024/03/06 10:37:45;;;;;;;19.60;12.82;;;;;;;18.92;100.00;102367.03;5070711;28;20070;-75
2024/03/06 10:40:15;;;;;;;15.93;13.25;;;;;;;18.54;100.00;102358.28;5070918;28;20105;-77
2024/03/06 10:42:42;;;;;;;15.82;12.75;;;;;;;18.53;100.00;102364.66;5071047;28;20035;-76
2024/03/06 10:45:12;;;;;;;13.98;11.05;;;;;;;18.04;100.00;102372.25;5052815;28;20028;-77
2024/03/06 10:47:39;;;;;;;13.47;11.27;;;;;;;18.28;100.00;102371.66;5070605;28;20551;-77
2024/03/06 10:50:10;;;;;;;17.55;12.75;;;;;;;18.41;100.00;102369.44;5069947;28;20157;-78
2024/03/06 10:52:38;;;;;;;19.95;12.93;;;;;;;17.82;100.00;102368.06;5069978;28;20483;-77
2024/03/06 10:55:04;;;;;;;19.10;13.52;;;;;;;16.89;100.00;102376.88;5070307;28;20103;-78
2024/03/06 10:57:30;;;;;;;17.88;12.48;;;;;;;16.37;100.00;102386.03;5052224;28;20080;-77
2024/03/06 10:59:59;;;;;;;17.17;12.32;;;;;;;16.41;100.00;102375.88;5070196;28;20020;-77
2024/03/06 11:02:26;;;;;;;18.15;13.80;;;;;;;15.37;100.00;102385.97;5069770;28;20124;-77